Latest Weather Observations for Lake Grace

IDW60801

Issued at 5:33 pm WST Tuesday 21 April 2015 (issued every 30 minutes, with the page automatically refreshed every 10 minutes)

About weather observations | Map of weather stations | Latest weather observations for WA | Other Formats
Station Details ID: 010911 Name: LAKE GRACE Lat: -33.10 Lon: 118.46 Height: 286.0 m
Data from the previous 72 hours. | See also: Recent months at Lake Grace
Date/Time
WST
Temp
°C
App
Temp
°C
Dew
Point
Rel
Hum
%
Delta-T
°C
Wind Press
QNH
hPa
Press
MSL
hPa
Rain
since 9 am
mm
Dir
 
Spd
km/h
Gust
km/h
Spd
kts
Gust
kts
21/05:30pm 21.9 19.1 2.1 27 9.4 SSE 6 9 3 5 1020.9 1020.1 0.0
21/05:00pm 23.1 19.7 2.0 25 10.0 SE 9 13 5 7 1020.9 1020.1 0.0
21/04:30pm 23.8 21.0 2.0 24 10.5 ESE 6 9 3 5 1020.8 1020.0 0.0
21/04:00pm 24.5 21.9 0.8 21 11.1 WNW 4 7 2 4 1020.9 1020.1 0.0
21/03:30pm 24.7 23.1 2.2 23 10.9 CALM 0 7 0 4 1021.1 1020.3 0.0
21/03:00pm 24.2 21.4 1.8 23 10.7 NE 6 11 3 6 1021.1 1020.3 0.0
21/02:30pm 24.7 21.9 2.2 23 10.9 NNE 6 9 3 5 1021.1 1020.3 0.0
21/02:00pm 24.0 21.2 2.2 24 10.5 W 6 11 3 6 1021.4 1020.6 0.0
21/01:30pm 24.1 21.4 2.9 25 10.4 WNW 6 9 3 5 1021.6 1020.9 0.0
21/01:00pm 23.8 21.3 3.7 27 9.9 NW 6 13 3 7 1021.9 1021.2 0.0
21/12:30pm 22.8 19.2 2.8 27 9.7 W 11 19 6 10 1022.6 1021.9 0.0
21/12:00pm 22.4 18.4 3.0 28 9.4 NW 13 19 7 10 1023.1 1022.4 0.0
21/11:30am 21.9 18.0 3.6 30 8.9 NNW 13 20 7 11 1023.6 1022.9 0.0
21/11:00am 21.2 16.5 3.0 30 8.7 N 17 22 9 12 1023.9 1023.2 0.0
21/10:30am 20.7 15.8 3.9 33 8.2 NNW 19 26 10 14 1024.5 1023.7 0.0
21/10:00am 19.0 15.3 4.4 38 7.1 N 13 19 7 10 1024.9 1024.2 0.0
21/09:30am 17.6 13.1 4.2 41 6.4 NNE 17 28 9 15 1025.0 1024.3 0.0
21/09:00am 16.4 12.1 5.1 47 5.4 N 17 22 9 12 1025.3 1024.6 0.0
21/08:30am 14.8 11.2 4.8 51 4.7 N 13 17 7 9 1025.6 1024.9 0.0
21/08:00am 12.9 10.8 5.8 62 3.4 NNE 6 9 3 5 1025.6 1024.9 0.0
21/07:30am 11.2 9.0 5.5 68 2.7 N 6 6 3 3 1025.5 1024.8 0.0
21/07:00am 9.7 7.4 4.9 72 2.2 N 6 7 3 4 1025.0 1024.3 0.0
21/06:30am 9.7 7.2 4.5 70 2.4 N 7 9 4 5 1024.8 1024.1 0.0
21/06:00am 10.1 7.6 4.5 68 2.5 NNE 7 9 4 5 1024.6 1023.9 0.0
21/05:30am 11.8 8.5 4.5 61 3.4 NNE 11 13 6 7 1024.5 1023.7 0.0
21/05:00am 12.9 9.3 4.8 58 3.8 NE 13 20 7 11 1024.5 1023.7 0.0
21/04:30am 12.6 8.6 5.1 60 3.5 NNE 15 20 8 11 1024.3 1023.5 0.0
21/04:00am 12.7 8.4 5.1 60 3.6 NE 17 22 9 12 1024.4 1023.6 0.0
21/03:30am 12.5 8.6 5.2 61 3.4 NE 15 20 8 11 1024.5 1023.7 0.0
21/03:00am 13.3 8.6 5.2 58 3.8 NE 19 24 10 13 1024.6 1023.9 0.0
21/02:30am 13.5 9.6 5.4 58 3.9 NE 15 20 8 11 1024.7 1024.0 0.0
21/02:00am 11.7 8.9 5.1 64 3.1 NNE 9 11 5 6 1024.9 1024.2 0.0
21/01:30am 13.9 10.4 5.3 56 4.1 NE 13 20 7 11 1025.1 1024.4 0.0
21/01:00am 14.1 10.5 4.9 54 4.3 NE 13 20 7 11 1025.1 1024.4 0.0
21/12:30am 15.0 11.0 5.0 51 4.8 NE 15 20 8 11 1025.3 1024.6 0.0
21/12:00am 15.0 10.6 5.0 51 4.7 NE 17 24 9 13 1025.3 1024.6 0.0
 
Date/Time
WST
Temp
°C
App
Temp
°C
Dew
Point
Rel
Hum
%
Delta-T
°C
Wind Press
QNH
hPa
Press
MSL
hPa
Rain
since 9 am
mm
Dir
 
Spd
km/h
Gust
km/h
Spd
kts
Gust
kts
20/11:30pm 15.6 11.2 4.9 49 5.1 NE 17 22 9 12 1025.4 1024.7 0.0
20/11:00pm 16.0 12.0 5.0 48 5.3 NE 15 22 8 12 1025.6 1024.9 0.0
20/10:30pm 16.7 11.8 5.0 46 5.7 ENE 20 33 11 18 1025.6 1024.9 0.0
20/10:00pm 16.4 12.1 5.1 47 5.4 ENE 17 20 9 11 1025.7 1025.0 0.0
20/09:30pm 16.3 12.7 5.0 47 5.4 ENE 13 19 7 10 1025.8 1025.1 0.0
20/09:00pm 16.3 12.7 5.0 47 5.4 ENE 13 17 7 9 1025.8 1025.1 0.0
20/08:30pm 16.9 13.7 4.9 45 5.8 ENE 11 15 6 8 1025.6 1024.9 0.0
20/08:00pm 17.4 14.2 5.0 44 6.0 ENE 11 15 6 8 1025.5 1024.8 0.0
20/07:30pm 17.9 14.6 4.8 42 6.4 ENE 11 13 6 7 1025.4 1024.7 0.0
20/07:00pm 18.7 15.4 4.8 40 6.8 ENE 11 13 6 7 1025.3 1024.6 0.0
20/06:30pm 19.1 15.8 4.8 39 7.0 ENE 11 13 6 7 1025.2 1024.5 0.0
20/06:00pm 20.1 17.2 4.6 36 7.6 ENE 9 11 5 6 1025.1 1024.4 0.0
20/05:30pm 22.1 19.5 4.2 31 8.9 ENE 7 11 4 6 1025.0 1024.3 0.0
20/05:00pm 23.4 19.5 3.4 27 9.8 NE 13 19 7 10 1024.8 1024.1 0.0
20/04:30pm 23.9 19.4 2.1 24 10.5 NNE 15 24 8 13 1024.8 1024.1 0.0
20/04:00pm 24.2 19.6 1.8 23 10.7 NNE 15 24 8 13 1024.9 1024.2 0.0
20/03:30pm 24.4 20.4 3.1 25 10.5 NE 13 20 7 11 1025.0 1024.3 0.0
20/03:00pm 24.4 20.1 3.1 25 10.4 NNE 15 24 8 13 1025.2 1024.5 0.0
20/02:30pm 24.4 20.7 4.7 28 10.0 NNE 13 20 7 11 1025.4 1024.7 0.0
20/02:00pm 23.5 19.8 4.5 29 9.5 NNE 13 20 7 11 1025.5 1024.8 0.0
20/01:30pm 23.6 19.8 6.0 32 9.1 NNE 15 22 8 12 1025.8 1025.1 0.0
20/01:00pm 22.5 19.1 5.9 34 8.5 NNE 13 24 7 13 1026.3 1025.6 0.0
20/12:30pm 22.0 17.9 6.3 36 8.1 NE 17 22 9 12 1026.8 1026.1 0.0
20/12:00pm 21.7 17.7 6.8 38 7.7 NNE 17 26 9 14 1027.4 1026.7 0.0
20/11:30am 21.6 17.7 7.1 39 7.5 N 17 26 9 14 1028.2 1027.5 0.0
20/11:00am 20.5 16.1 7.5 43 6.7 NNE 20 32 11 17 1028.6 1027.9 0.0
20/10:30am 19.8 15.1 7.9 46 6.2 N 22 32 12 17 1028.8 1028.1 0.0
20/10:00am 19.2 14.5 7.9 48 5.8 N 22 37 12 20 1029.1 1028.4 0.0
20/09:30am 18.5 13.8 7.9 50 5.5 NNE 22 39 12 21 1029.1 1028.4 0.0
20/09:00am 17.1 12.9 8.3 56 4.5 NNE 20 32 11 17 1029.2 1028.5 0.0
20/08:30am 16.0 11.8 8.2 60 4.0 NE 20 32 11 17 1029.3 1028.6 0.0
20/08:00am 14.3 11.0 8.0 66 3.2 NE 15 20 8 11 1029.6 1028.9 0.0
20/07:30am 13.3 9.9 7.5 68 2.9 NE 15 26 8 14 1029.3 1028.6 0.0
20/07:00am 12.6 9.2 7.7 72 2.4 ENE 15 22 8 12 1029.1 1028.4 0.0
20/06:30am 12.0 9.7 7.3 73 2.3 ENE 9 13 5 7 1029.1 1028.4 0.0
20/06:00am 12.4 9.8 7.7 73 2.3 ENE 11 17 6 9 1028.9 1028.2 0.0
20/05:30am 12.9 10.0 8.0 72 2.5 ENE 13 19 7 10 1028.7 1028.0 0.0
20/05:00am 13.0 9.7 8.1 72 2.4 ENE 15 24 8 13 1028.6 1027.9 0.0
20/04:30am 13.2 9.5 8.1 71 2.6 NE 17 24 9 13 1028.4 1027.7 0.0
20/04:00am 13.3 9.7 8.4 72 2.5 ENE 17 24 9 13 1028.4 1027.7 0.0
20/03:30am 13.0 9.3 8.1 72 2.5 ENE 17 22 9 12 1028.3 1027.6 0.0
20/03:00am 13.4 10.1 8.0 70 2.7 ENE 15 20 8 11 1028.5 1027.8 0.0
20/02:30am 13.6 10.8 8.4 71 2.6 ENE 13 19 7 10 1028.6 1027.9 0.0
20/02:00am 14.2 11.4 8.4 68 2.9 ENE 13 19 7 10 1028.9 1028.2 0.0
20/01:30am 15.2 11.2 8.4 64 3.5 NE 19 26 10 14 1028.9 1028.2 0.0
20/01:00am 15.4 11.8 8.4 63 3.6 NE 17 24 9 13 1028.9 1028.2 0.0
20/12:30am 15.8 12.2 8.5 62 3.8 NE 17 24 9 13 1028.8 1028.1 0.0
20/12:00am 15.9 12.4 8.6 62 3.7 ENE 17 22 9 12 1028.9 1028.2 0.0
 
Date/Time
WST
Temp
°C
App
Temp
°C
Dew
Point
Rel
Hum
%
Delta-T
°C
Wind Press
QNH
hPa
Press
MSL
hPa
Rain
since 9 am
mm
Dir
 
Spd
km/h
Gust
km/h
Spd
kts
Gust
kts
19/11:30pm 16.0 12.5 8.7 62 3.8 ENE 17 24 9 13 1028.8 1028.1 0.0
19/11:00pm 16.3 13.2 8.8 61 3.9 ENE 15 20 8 11 1029.0 1028.3 0.0
19/10:30pm 16.1 13.8 9.1 63 3.7 ENE 11 15 6 8 1029.2 1028.5 0.0
19/10:00pm 16.2 13.6 9.4 64 3.6 ENE 13 19 7 10 1029.2 1028.5 0.0
19/09:30pm 16.5 13.9 9.4 63 3.7 ENE 13 15 7 8 1029.1 1028.4 0.0
19/09:00pm 16.8 15.0 9.5 62 3.8 ENE 9 13 5 7 1029.0 1028.3 0.0
19/08:30pm 17.4 15.3 9.6 60 4.2 ENE 11 15 6 8 1028.8 1028.1 0.0
19/08:00pm 18.0 15.9 9.6 58 4.5 ENE 11 13 6 7 1028.8 1028.1 0.0
19/07:30pm 19.1 16.6 9.6 54 5.1 E 13 17 7 9 1028.5 1027.8 0.0
19/07:00pm 19.6 17.4 9.5 52 5.4 E 11 13 6 7 1028.4 1027.7 0.0
19/06:30pm 20.0 18.6 9.6 51 5.6 ENE 7 11 4 6 1028.1 1027.4 0.0
19/06:00pm 21.0 18.8 9.3 47 6.3 E 11 13 6 7 1027.5 1026.8 0.0
19/05:30pm 22.4 19.8 9.2 43 7.2 ENE 13 19 7 10 1027.1 1026.4 0.0
19/05:00pm 23.4 20.3 9.0 40 7.8 ENE 15 20 8 11 1026.9 1026.2 0.0
19/04:30pm 23.9 20.5 9.1 39 8.1 ENE 17 24 9 13 1026.9 1026.2 0.0
19/04:00pm 24.3 21.3 9.1 38 8.3 NE 15 24 8 13 1026.9 1026.2 0.0
19/03:30pm 24.4 21.2 8.4 36 8.7 ENE 15 24 8 13 1027.1 1026.4 0.0
19/03:00pm 24.3 21.1 8.3 36 8.6 NNE 15 20 8 11 1027.0 1026.3 0.0
19/02:30pm 24.2 21.0 8.6 37 8.5 NE 15 24 8 13 1027.0 1026.3 0.0
19/02:00pm 23.8 20.4 9.0 39 8.0 NNE 17 24 9 13 1027.1 1026.4 0.0
19/01:30pm 23.8 20.6 8.6 38 8.2 NE 15 24 8 13 1027.4 1026.7 0.0
19/01:00pm 23.5 20.7 9.9 42 7.5 NNE 15 24 8 13 1027.8 1027.2 0.0
19/12:30pm 22.8 19.6 9.9 44 7.1 NNE 17 28 9 15 1028.3 1027.6 0.0
19/12:00pm 22.2 19.1 10.4 47 6.5 NNE 17 26 9 14 1028.8 1028.1 0.0
19/11:30am 21.7 18.7 10.5 49 6.2 NNE 17 26 9 14 1029.2 1028.5 0.0
19/11:00am 21.2 17.7 11.0 52 5.7 NNE 20 30 11 16 1029.4 1028.7 0.0
19/10:30am 20.3 17.1 11.2 56 5.1 NNE 19 32 10 17 1029.8 1029.1 0.0
19/10:00am 19.5 16.2 11.5 60 4.4 NNE 20 33 11 18 1029.9 1029.2 0.0
19/09:30am 18.3 15.0 11.6 65 3.7 NNE 20 28 11 15 1030.1 1029.4 0.0
19/09:00am 16.8 13.1 11.5 71 2.9 NE 22 32 12 17 1030.4 1029.7 0.0
19/08:30am 15.7 13.8 11.7 77 2.2 NE 13 22 7 12 1030.3 1029.6 0.0
19/08:00am 14.2 12.1 11.2 82 1.6 NE 13 20 7 11 1030.0 1029.3 0.0
19/07:30am 13.1 11.7 11.0 87 1.1 ENE 9 13 5 7 1029.8 1029.1 0.0
19/07:00am 11.6 10.3 10.0 90 0.8 ENE 7 13 4 7 1029.4 1028.7 0.0
19/06:30am 11.1 9.3 9.4 89 0.9 E 9 11 5 6 1029.0 1028.3 0.0
19/06:00am 11.2 9.8 9.5 89 0.9 E 7 9 4 5 1028.6 1027.9 0.0
19/05:30am 11.4 10.0 9.5 88 1.0 E 7 13 4 7 1028.5 1027.8 0.0
19/05:00am 11.6 10.2 9.5 87 1.1 E 7 13 4 7 1028.3 1027.6 0.0
19/04:30am 12.0 10.3 9.9 87 1.1 ENE 9 13 5 7 1028.1 1027.4 0.0
19/04:00am 12.2 10.5 9.9 86 1.2 E 9 17 5 9 1027.8 1027.2 0.0
19/03:30am 12.4 10.7 10.0 85 1.2 ENE 9 15 5 8 1027.5 1026.8 0.0
19/03:00am 12.6 10.9 10.0 84 1.3 ESE 9 19 5 10 1027.5 1026.8 0.0
19/02:30am 12.9 11.7 10.4 85 1.3 W 7 13 4 7 1027.6 1027.0 0.0
19/02:00am 13.3 11.9 10.8 85 1.3 ESE 9 17 5 9 1027.5 1026.8 0.0
19/01:30am 13.6 9.7 10.9 84 1.4 ENE 22 32 12 17 1027.3 1026.6 0.0
19/01:00am 13.8 10.3 11.0 83 1.5 ENE 20 30 11 16 1027.4 1026.7 0.0
19/12:30am 13.8 10.9 11.0 83 1.5 ENE 17 24 9 13 1027.5 1026.8 0.0
19/12:00am 13.9 10.0 10.9 82 1.6 ENE 22 35 12 19 1027.4 1026.7 0.0
 
Date/Time
WST
Temp
°C
App
Temp
°C
Dew
Point
Rel
Hum
%
Delta-T
°C
Wind Press
QNH
hPa
Press
MSL
hPa
Rain
since 9 am
mm
Dir
 
Spd
km/h
Gust
km/h
Spd
kts
Gust
kts
18/11:30pm 13.9 9.6 10.9 82 1.6 ENE 24 35 13 19 1027.4 1026.7 0.0
18/11:00pm 14.0 10.1 10.8 81 1.7 E 22 35 12 19 1027.7 1027.1 0.0
18/10:30pm 14.1 10.8 10.9 81 1.7 E 19 28 10 15 1027.7 1027.1 0.0
18/10:00pm 14.4 10.6 11.0 80 1.8 E 22 32 12 17 1027.7 1027.1 0.0
18/09:30pm 14.6 10.8 11.2 80 1.8 E 22 35 12 19 1027.8 1027.2 0.0
18/09:00pm 14.8 11.4 11.2 79 1.9 E 20 32 11 17 1027.6 1027.0 0.0
18/08:30pm 15.0 11.7 11.6 80 1.9 ESE 20 32 11 17 1027.6 1027.0 0.0
18/08:00pm 15.2 12.0 11.8 80 1.9 ESE 20 33 11 18 1027.4 1026.7 0.0
18/07:30pm 15.3 11.4 12.2 82 1.7 E 24 37 13 20 1027.3 1026.6 0.0
18/07:00pm 15.6 12.2 12.4 81 1.8 ESE 22 33 12 18 1027.1 1026.4 0.0
18/06:30pm 15.8 12.4 12.5 81 1.8 ESE 22 35 12 19 1026.7 1026.0 0.0
18/06:00pm 16.1 13.1 12.5 79 2.0 ESE 20 28 11 15 1026.3 1025.6 0.0

Other Formats:

Comma delimited format used in spreadsheet applications
http://www.bom.gov.au/fwo/IDW60801/IDW60801.95637.axf

JavaScript Object Notation format (JSON) in row-major order
http://www.bom.gov.au/fwo/IDW60801/IDW60801.95637.json